Time;durP1;ratioP1;P1;durP2;ratioP2;P2;SDS_P1;SDS_P2;PMS_P1;PMS_P2;Temp;Humidity;BMP_temperature;BMP_pressure;BME280_temperature;BME280_humidity;BME280_pressure;Samples;Min_cycle;Max_cycle;Signal;HPM_P1;HPM_P2
2023/06/05 00:00:56;;;;;;;11.87;10.03;;;;;;;14.83;nan;99669.97;5065099;28;20189;-78
2023/06/05 00:03:26;;;;;;;9.97;9.10;;;;;;;14.88;nan;99669.25;5065797;28;20197;-79
2023/06/05 00:05:53;;;;;;;10.63;9.73;;;;;;;14.84;nan;99663.50;5066883;28;20270;-78
2023/06/05 00:08:21;;;;;;;11.33;10.23;;;;;;;14.81;nan;99658.59;5060085;28;20233;-79
2023/06/05 00:10:48;;;;;;;10.57;9.67;;;;;;;14.81;nan;99663.19;5067927;28;20648;-79
2023/06/05 00:13:16;;;;;;;10.27;9.37;;;;;;;14.81;nan;99660.47;5062123;28;20216;-79
2023/06/05 00:15:42;;;;;;;11.10;10.00;;;;;;;14.80;nan;99661.53;5059502;28;20197;-79
2023/06/05 00:18:09;;;;;;;10.77;9.77;;;;;;;14.82;nan;99660.25;5065388;28;20251;-79
2023/06/05 00:20:36;;;;;;;10.60;9.70;;;;;;;14.82;nan;99662.13;5064166;28;20186;-78
2023/06/05 00:23:03;;;;;;;11.03;10.03;;;;;;;14.80;nan;99659.66;5063152;28;20181;-78
2023/06/05 00:25:30;;;;;;;10.50;9.50;;;;;;;14.75;nan;99662.28;5061753;28;20260;-80
2023/06/05 00:27:56;;;;;;;10.67;9.77;;;;;;;14.82;nan;99659.44;5065558;28;20200;-79
2023/06/05 00:30:23;;;;;;;9.87;8.97;;;;;;;14.79;nan;99655.31;5067820;28;20266;-79
2023/06/05 00:32:50;;;;;;;8.80;8.00;;;;;;;14.75;nan;99651.50;5059555;28;20251;-79
2023/06/05 00:35:17;;;;;;;9.97;9.10;;;;;;;14.76;nan;99660.41;5060708;28;20194;-79
2023/06/05 00:37:46;;;;;;;9.50;8.60;;;;;;;14.74;nan;99663.38;5066926;28;20201;-79
2023/06/05 00:40:14;;;;;;;9.43;8.53;;;;;;;14.73;nan;99664.41;5056546;28;20196;-78
2023/06/05 00:42:40;;;;;;;9.57;8.67;;;;;;;14.72;nan;99657.38;5057678;28;20186;-78
2023/06/05 00:45:07;;;;;;;10.17;9.27;;;;;;;14.71;nan;99655.75;5049505;28;20196;-78
2023/06/05 00:47:35;;;;;;;9.73;8.83;;;;;;;14.73;nan;99659.03;5045403;28;20190;-79
2023/06/05 00:50:02;;;;;;;9.40;8.60;;;;;;;14.59;nan;99652.31;5053276;28;20202;-79
2023/06/05 00:52:29;;;;;;;9.50;8.60;;;;;;;14.56;nan;99663.59;5051247;28;20190;-78
2023/06/05 00:54:56;;;;;;;10.03;9.23;;;;;;;14.51;nan;99661.63;5059325;28;20196;-79
2023/06/05 00:57:24;;;;;;;10.20;9.40;;;;;;;14.49;nan;99658.38;5052804;28;20182;-79
2023/06/05 00:59:53;;;;;;;9.87;9.07;;;;;;;14.47;nan;99659.66;5045370;28;20209;-79
2023/06/05 01:02:20;;;;;;;10.00;9.10;;;;;;;14.50;nan;99664.59;5051069;28;20198;-78
2023/06/05 01:04:47;;;;;;;9.93;9.07;;;;;;;14.52;nan;99660.56;5047497;28;20198;-79
2023/06/05 01:07:16;;;;;;;9.90;9.10;;;;;;;14.52;nan;99657.88;5054909;28;20186;-79
2023/06/05 01:09:44;;;;;;;10.93;9.93;;;;;;;14.56;nan;99662.78;5056224;28;20244;-79
2023/06/05 01:12:18;;;;;;;11.10;10.00;;;;;;;14.59;nan;99660.41;5061586;28;20200;-79
2023/06/05 01:14:48;;;;;;;10.60;9.70;;;;;;;14.67;nan;99660.00;5045342;28;20200;-79
2023/06/05 01:17:18;;;;;;;9.90;9.03;;;;;;;14.64;nan;99663.19;5032430;28;20202;-79
2023/06/05 01:19:46;;;;;;;10.20;9.30;;;;;;;14.57;nan;99659.00;5029437;28;20204;-78
2023/06/05 01:22:12;;;;;;;10.77;9.73;;;;;;;14.57;nan;99661.72;5057220;28;20185;-79
2023/06/05 01:24:40;;;;;;;9.87;8.97;;;;;;;14.59;nan;99673.91;5037390;28;20227;-79
2023/06/05 01:27:12;;;;;;;10.77;9.77;;;;;;;14.65;nan;99661.31;5034437;28;20187;-79
2023/06/05 01:30:00;;;;;;;11.00;10.10;;;;;;;14.61;nan;99657.44;5044457;28;20243;-79
2023/06/05 01:32:54;;;;;;;10.97;10.07;;;;;;;14.58;nan;99664.16;5071499;28;20177;-80
2023/06/05 01:35:27;;;;;;;10.57;9.67;;;;;;;14.56;nan;99660.88;5061561;28;20189;-79
2023/06/05 01:37:57;;;;;;;10.80;9.80;;;;;;;14.59;nan;99665.81;5035013;28;20676;-80
2023/06/05 01:40:24;;;;;;;11.03;10.13;;;;;;;14.53;nan;99656.81;5056918;28;20185;-79
2023/06/05 01:42:54;;;;;;;10.63;9.73;;;;;;;14.53;nan;99661.38;5056973;28;20213;-80
2023/06/05 01:45:21;;;;;;;10.40;9.50;;;;;;;14.54;nan;99671.13;5040402;28;20194;-80
2023/06/05 01:47:48;;;;;;;11.30;10.30;;;;;;;14.60;nan;99664.75;5057184;28;20201;-79
2023/06/05 01:50:15;;;;;;;11.27;10.27;;;;;;;14.59;nan;99665.81;5040499;28;20346;-79
2023/06/05 01:52:44;;;;;;;10.47;9.67;;;;;;;14.61;nan;99663.66;5057252;28;20189;-79
2023/06/05 01:55:23;;;;;;;11.03;10.07;;;;;;;14.65;nan;99666.72;5056508;28;20186;-79
2023/06/05 01:57:50;;;;;;;10.83;9.83;;;;;;;14.67;nan;99670.78;5058353;28;20204;-79
2023/06/05 02:00:18;;;;;;;11.60;10.47;;;;;;;14.66;nan;99669.16;5056885;28;20190;-79
2023/06/05 02:02:49;;;;;;;11.00;10.00;;;;;;;14.65;nan;99667.50;5056639;28;20216;-79
2023/06/05 02:05:17;;;;;;;10.83;9.90;;;;;;;14.66;nan;99666.44;5057933;28;20299;-80
2023/06/05 02:07:58;;;;;;;10.10;9.20;;;;;;;14.69;nan;99657.06;5055922;28;20211;-80
2023/06/05 02:10:25;;;;;;;10.60;9.70;;;;;;;14.73;nan;99642.84;5024908;28;20213;-79
2023/06/05 02:12:51;;;;;;;10.87;9.97;;;;;;;14.70;nan;99647.88;5056179;28;20614;-79
2023/06/05 02:15:19;;;;;;;10.63;9.73;;;;;;;14.74;nan;99649.06;5057502;28;20178;-79
2023/06/05 02:17:50;;;;;;;11.37;10.40;;;;;;;14.71;nan;99647.66;5055600;28;20182;-78
2023/06/05 02:20:18;;;;;;;11.83;10.83;;;;;;;14.73;nan;99658.22;5054895;28;20189;-79
2023/06/05 02:22:45;;;;;;;11.67;10.57;;;;;;;14.71;nan;99653.06;5056024;28;20326;-79
2023/06/05 02:25:12;;;;;;;13.00;11.80;;;;;;;14.67;nan;99649.22;5056383;28;20641;-79
2023/06/05 02:27:39;;;;;;;13.30;12.13;;;;;;;14.69;nan;99654.38;5056220;28;20261;-78
2023/06/05 02:30:06;;;;;;;13.93;12.67;;;;;;;14.67;nan;99654.59;5056132;28;20209;-79
2023/06/05 02:32:35;;;;;;;13.07;11.97;;;;;;;14.63;nan;99649.94;5054640;28;20197;-78
2023/06/05 02:35:04;;;;;;;13.33;12.23;;;;;;;14.62;nan;99649.13;5054977;28;20604;-78
2023/06/05 02:37:36;;;;;;;13.60;12.40;;;;;;;14.61;nan;99650.19;5054709;28;20614;-79
2023/06/05 02:40:05;;;;;;;14.53;13.03;;;;;;;14.61;nan;99643.97;5056118;28;20233;-79
2023/06/05 02:42:32;;;;;;;13.57;12.30;;;;;;;14.59;nan;99640.72;5056072;28;20193;-79
2023/06/05 02:44:59;;;;;;;13.63;12.40;;;;;;;14.62;nan;99651.81;5055939;28;20186;-79
2023/06/05 02:47:26;;;;;;;13.10;11.90;;;;;;;14.62;nan;99649.13;5069423;28;20296;-79
2023/06/05 02:49:53;;;;;;;13.03;11.83;;;;;;;14.63;nan;99639.97;5070770;28;20704;-79
2023/06/05 02:52:20;;;;;;;13.53;12.23;;;;;;;14.67;nan;99645.69;5063850;28;20190;-79
2023/06/05 02:54:48;;;;;;;13.07;11.87;;;;;;;14.70;nan;99654.09;5067245;28;20181;-79
2023/06/05 02:57:17;;;;;;;13.87;12.67;;;;;;;14.72;nan;99651.16;5070513;28;20205;-78
2023/06/05 02:59:46;;;;;;;12.67;11.57;;;;;;;14.73;nan;99648.25;5044264;28;20193;-79
2023/06/05 03:02:16;;;;;;;12.47;11.37;;;;;;;14.69;nan;99641.72;5048748;28;20197;-79
2023/06/05 03:04:53;;;;;;;12.83;11.63;;;;;;;14.70;nan;99645.19;5073282;28;20208;-79
2023/06/05 03:07:22;;;;;;;11.77;10.67;;;;;;;14.70;nan;99642.50;5046871;28;20198;-78
2023/06/05 03:09:50;;;;;;;11.43;10.53;;;;;;;14.76;nan;99639.66;5060819;28;20641;-78
2023/06/05 03:12:16;;;;;;;12.53;11.33;;;;;;;14.72;nan;99637.69;5068380;28;20221;-79
2023/06/05 03:14:43;;;;;;;12.17;11.07;;;;;;;14.77;nan;99638.59;5066907;28;20194;-79
2023/06/05 03:17:10;;;;;;;11.30;10.30;;;;;;;14.76;nan;99634.25;5061228;28;20693;-79
2023/06/05 03:19:38;;;;;;;12.30;11.20;;;;;;;14.73;nan;99637.44;5061031;28;20212;-78
2023/06/05 03:22:05;;;;;;;11.63;10.73;;;;;;;14.85;nan;99631.94;5064603;28;20737;-79
2023/06/05 03:24:37;;;;;;;11.43;10.43;;;;;;;14.76;nan;99634.25;5067426;28;20200;-78
2023/06/05 03:27:07;;;;;;;9.93;9.03;;;;;;;14.78;nan;99632.13;5063437;28;20202;-79
2023/06/05 03:29:34;;;;;;;10.13;9.23;;;;;;;14.76;nan;99628.03;5061877;28;20213;-79
2023/06/05 03:32:01;;;;;;;8.77;7.97;;;;;;;14.79;nan;99628.34;5064893;28;20280;-79
2023/06/05 03:34:29;;;;;;;9.30;8.50;;;;;;;14.78;nan;99624.03;5057012;28;20202;-79
2023/06/05 03:36:59;;;;;;;9.40;8.40;;;;;;;14.79;nan;99625.66;5055516;28;20206;-80
2023/06/05 03:39:27;;;;;;;9.10;8.30;;;;;;;14.83;nan;99616.03;5070154;28;20192;-79
2023/06/05 03:41:55;;;;;;;8.80;8.00;;;;;;;14.80;nan;99621.09;5060755;28;20216;-78
2023/06/05 03:44:25;;;;;;;9.07;7.83;;;;;;;14.81;nan;99623.53;5062891;28;20264;-79
2023/06/05 03:46:52;;;;;;;9.57;8.67;;;;;;;14.84;nan;99619.53;5045153;28;20217;-78
2023/06/05 03:49:22;;;;;;;9.20;8.40;;;;;;;14.84;nan;99623.03;5054803;28;20292;-79
2023/06/05 03:51:50;;;;;;;8.93;8.10;;;;;;;14.87;nan;99627.13;5057931;28;20729;-79
2023/06/05 03:54:18;;;;;;;10.57;7.77;;;;;;;14.87;nan;99632.53;5054894;28;20186;-79
2023/06/05 03:56:49;;;;;;;8.90;8.00;;;;;;;14.88;nan;99628.78;5062328;28;20256;-79
2023/06/05 03:59:19;;;;;;;8.70;8.00;;;;;;;15.00;nan;99624.09;5054519;28;20224;-79
2023/06/05 04:01:55;;;;;;;8.47;7.67;;;;;;;14.93;nan;99626.16;5064599;28;20197;-79
2023/06/05 04:04:23;;;;;;;8.90;8.00;;;;;;;14.91;nan;99626.41;5047880;28;20280;-79
2023/06/05 04:06:54;;;;;;;8.33;7.53;;;;;;;14.94;nan;99623.19;5047071;28;20274;-79
2023/06/05 04:09:23;;;;;;;8.33;7.53;;;;;;;15.01;nan;99620.34;5051472;28;20234;-79
2023/06/05 04:11:50;;;;;;;9.13;7.63;;;;;;;15.12;nan;99634.75;5062691;28;20670;-79
2023/06/05 04:14:17;;;;;;;8.20;7.47;;;;;;;15.10;nan;99621.53;5056203;28;20193;-79
2023/06/05 04:16:44;;;;;;;9.50;8.13;;;;;;;15.13;nan;99623.72;5051077;28;20281;-79
2023/06/05 04:19:16;;;;;;;9.43;8.53;;;;;;;15.18;nan;99623.78;5061284;28;20200;-79
2023/06/05 04:21:46;;;;;;;9.07;8.10;;;;;;;15.23;nan;99623.03;5071015;28;20242;-79
2023/06/05 04:24:13;;;;;;;9.43;8.33;;;;;;;15.27;nan;99626.88;5063413;28;20191;-78
2023/06/05 04:26:41;;;;;;;8.40;7.60;;;;;;;15.34;nan;99624.81;5055401;28;20195;-79
2023/06/05 04:29:16;;;;;;;8.60;7.77;;;;;;;15.49;nan;99625.00;5057486;28;20644;-79
2023/06/05 04:31:44;;;;;;;8.47;7.67;;;;;;;15.66;nan;99622.28;5057144;28;20236;-78
2023/06/05 04:34:12;;;;;;;8.17;7.37;;;;;;;15.87;nan;99616.00;5049582;28;20291;-79
2023/06/05 04:36:42;;;;;;;9.53;7.90;;;;;;;15.96;nan;99619.09;5043915;28;20308;-79
2023/06/05 04:39:14;;;;;;;8.57;7.67;;;;;;;15.98;nan;99615.06;5049997;28;20205;-80
2023/06/05 04:41:46;;;;;;;8.17;7.40;;;;;;;16.07;nan;99620.81;5058624;28;20248;-79
2023/06/05 04:44:22;;;;;;;8.80;7.23;;;;;;;16.06;nan;99613.78;5056603;28;20209;-79
2023/06/05 04:46:49;;;;;;;8.27;7.50;;;;;;;16.15;nan;99612.22;5056146;28;20323;-79
2023/06/05 04:49:18;;;;;;;8.33;7.53;;;;;;;16.23;nan;99609.91;5068257;28;20222;-78
2023/06/05 04:51:46;;;;;;;8.57;7.77;;;;;;;16.35;nan;99601.59;5060036;28;20708;-79
2023/06/05 04:54:13;;;;;;;8.20;7.40;;;;;;;16.44;nan;99607.34;5053435;28;20185;-79
2023/06/05 04:56:40;;;;;;;8.13;7.43;;;;;;;16.52;nan;99607.69;5071425;28;20201;-79
2023/06/05 04:59:07;;;;;;;8.73;7.87;;;;;;;16.59;nan;99605.63;5057353;28;20664;-79
2023/06/05 05:01:35;;;;;;;7.93;7.23;;;;;;;16.64;nan;99599.44;5051400;28;20202;-79
2023/06/05 05:04:02;;;;;;;9.20;8.20;;;;;;;16.71;nan;99598.13;5051769;28;20573;-79
2023/06/05 05:06:30;;;;;;;8.27;7.47;;;;;;;16.74;nan;99594.09;5058668;28;20202;-79
2023/06/05 05:08:57;;;;;;;9.03;8.13;;;;;;;16.82;nan;99600.91;5060096;28;20279;-79
2023/06/05 05:11:26;;;;;;;8.47;7.77;;;;;;;16.87;nan;99599.06;5059379;28;20578;-78
2023/06/05 05:13:53;;;;;;;8.70;7.90;;;;;;;16.93;nan;99602.59;5054941;28;20200;-79
2023/06/05 05:16:20;;;;;;;10.13;9.10;;;;;;;17.08;nan;99614.31;5054869;28;20200;-79
2023/06/05 05:18:47;;;;;;;9.03;8.13;;;;;;;17.16;nan;99608.44;5054507;28;20201;-79
2023/06/05 05:21:17;;;;;;;9.23;8.43;;;;;;;17.21;nan;99607.63;5063018;28;20202;-78
2023/06/05 05:23:44;;;;;;;9.43;8.63;;;;;;;17.18;nan;99608.16;5054853;28;20185;-78
2023/06/05 05:26:10;;;;;;;9.33;8.43;;;;;;;17.24;nan;99611.69;5055908;28;20189;-78
2023/06/05 05:28:37;;;;;;;8.43;7.67;;;;;;;17.28;nan;99612.81;5065375;28;20193;-79
2023/06/05 05:31:05;;;;;;;8.10;7.30;;;;;;;17.42;nan;99613.94;5072400;28;20607;-80
2023/06/05 05:33:34;;;;;;;8.17;7.43;;;;;;;17.65;nan;99616.22;5061834;28;20348;-79
2023/06/05 05:36:02;;;;;;;8.47;7.67;;;;;;;18.05;nan;99615.53;5073784;28;20313;-78
2023/06/05 05:38:29;;;;;;;8.23;7.53;;;;;;;18.34;nan;99618.53;5071935;28;20766;-79
2023/06/05 05:40:56;;;;;;;32.63;20.47;;;;;;;18.70;nan;99619.41;5072326;28;20218;-79
2023/06/05 05:43:23;;;;;;;12.33;10.20;;;;;;;18.91;nan;99610.94;5054913;28;20195;-79
2023/06/05 05:45:49;;;;;;;8.20;7.40;;;;;;;19.04;nan;99606.84;5059571;28;20715;-79
2023/06/05 05:48:17;;;;;;;6.53;5.87;;;;;;;19.10;nan;99613.88;5063824;28;20186;-79
2023/06/05 05:50:44;;;;;;;6.77;6.20;;;;;;;19.27;nan;99622.50;5064959;28;20203;-79
2023/06/05 05:53:11;;;;;;;9.80;8.97;;;;;;;19.46;nan;99614.59;5066532;28;20198;-79
2023/06/05 05:55:38;;;;;;;6.20;5.70;;;;;;;19.54;nan;99614.06;5069031;28;20194;-79
2023/06/05 05:58:05;;;;;;;5.53;5.03;;;;;;;19.68;nan;99614.25;5068023;28;20187;-79
2023/06/05 06:00:31;;;;;;;5.20;4.70;;;;;;;19.75;nan;99615.56;5061860;28;20180;-79
2023/06/05 06:02:58;;;;;;;6.33;4.93;;;;;;;20.09;nan;99612.94;5057781;28;20189;-79
2023/06/05 06:05:29;;;;;;;5.23;4.73;;;;;;;20.37;nan;99607.84;5063592;28;20188;-79
2023/06/05 06:07:56;;;;;;;5.40;4.90;;;;;;;20.50;nan;99610.75;5063656;28;20242;-79
2023/06/05 06:10:23;;;;;;;5.47;4.97;;;;;;;20.50;nan;99613.47;5053897;28;20221;-79
2023/06/05 06:12:50;;;;;;;5.93;5.33;;;;;;;20.52;nan;99607.75;5059244;28;20194;-79
2023/06/05 06:15:17;;;;;;;5.50;5.00;;;;;;;20.54;nan;99609.06;5056591;28;20224;-78
2023/06/05 06:17:45;;;;;;;5.53;5.00;;;;;;;20.50;nan;99601.75;5053171;28;20192;-79
2023/06/05 06:20:13;;;;;;;5.60;5.13;;;;;;;20.65;nan;99612.53;5067306;28;20195;-80
2023/06/05 06:22:40;;;;;;;6.20;5.13;;;;;;;20.78;nan;99613.75;5053767;28;20645;-78
2023/06/05 06:25:10;;;;;;;6.23;5.30;;;;;;;20.97;nan;99611.94;5050811;28;20226;-79
2023/06/05 06:27:37;;;;;;;5.80;5.30;;;;;;;21.09;nan;99621.31;5052220;28;20195;-79
2023/06/05 06:30:05;;;;;;;5.40;4.90;;;;;;;21.01;nan;99616.53;5049096;28;20194;-78
2023/06/05 06:32:32;;;;;;;5.50;5.00;;;;;;;21.03;nan;99614.34;5037462;28;20249;-78
2023/06/05 06:34:59;;;;;;;5.07;4.60;;;;;;;21.26;nan;99622.84;5047702;28;20185;-79
2023/06/05 06:37:26;;;;;;;5.37;4.97;;;;;;;21.33;nan;99618.66;5062093;28;20651;-79
2023/06/05 06:39:53;;;;;;;5.07;4.63;;;;;;;21.56;nan;99616.22;5063023;28;20185;-79
2023/06/05 06:42:20;;;;;;;5.23;4.73;;;;;;;21.71;nan;99611.34;5051511;28;20196;-80
2023/06/05 06:45:12;;;;;;;5.27;4.87;;;;;;;21.74;nan;99605.31;5053416;28;20212;-78
2023/06/05 06:47:40;;;;;;;5.13;4.73;;;;;;;21.74;nan;99604.53;5064080;28;20268;-79
2023/06/05 06:50:08;;;;;;;5.10;4.65;;;;;;;21.87;nan;99606.53;5063918;28;20184;-79
2023/06/05 06:52:35;;;;;;;5.03;4.38;;;;;;;22.07;nan;99605.44;5059345;28;20593;-79
2023/06/05 06:55:02;;;;;;;4.77;4.37;;;;;;;22.32;nan;99615.97;5059194;28;20193;-79
2023/06/05 06:57:29;;;;;;;5.40;4.57;;;;;;;22.14;nan;99606.69;5058188;28;20663;-79
2023/06/05 06:59:56;;;;;;;5.60;4.60;;;;;;;22.12;nan;99603.44;5057038;28;20196;-79
2023/06/05 07:02:24;;;;;;;5.40;4.53;;;;;;;22.44;nan;99610.06;5058621;28;20208;-79
2023/06/05 07:04:53;;;;;;;5.60;4.43;;;;;;;22.53;nan;99611.81;5065962;28;20753;-79
2023/06/05 07:07:21;;;;;;;4.28;3.95;;;;;;;22.41;nan;99614.19;5060349;28;20190;-80
2023/06/05 07:09:49;;;;;;;4.53;4.13;;;;;;;22.43;nan;99619.34;5055249;28;20229;-80
2023/06/05 07:12:19;;;;;;;5.30;4.30;;;;;;;22.42;nan;99621.28;5052740;28;20209;-80
2023/06/05 07:14:46;;;;;;;4.40;4.00;;;;;;;22.57;nan;99615.56;5059459;28;20194;-80
2023/06/05 07:17:13;;;;;;;5.03;4.22;;;;;;;22.87;nan;99611.50;5055188;28;20243;-80
2023/06/05 07:19:40;;;;;;;4.25;3.90;;;;;;;22.88;nan;99615.88;5049605;28;20672;-80
2023/06/05 07:22:07;;;;;;;4.28;3.92;;;;;;;23.39;nan;99614.91;5056719;28;20326;-80
2023/06/05 07:24:41;;;;;;;4.78;4.38;;;;;;;23.75;nan;99613.06;5059154;28;20190;-79
2023/06/05 07:27:08;;;;;;;4.88;4.25;;;;;;;23.95;nan;99615.34;5058285;28;20189;-80
2023/06/05 07:29:35;;;;;;;5.25;4.07;;;;;;;24.11;nan;99613.91;5060266;28;20598;-80
2023/06/05 07:32:06;;;;;;;4.60;4.20;;;;;;;24.16;nan;99617.66;5062875;28;20197;-80
2023/06/05 07:34:37;;;;;;;4.25;3.95;;;;;;;24.13;nan;99617.13;5056745;28;20197;-80
2023/06/05 07:37:04;;;;;;;4.22;3.90;;;;;;;24.25;nan;99616.63;5053200;28;20656;-81
2023/06/05 07:39:30;;;;;;;4.72;4.18;;;;;;;24.24;nan;99608.72;5061966;28;20262;-81
2023/06/05 07:41:57;;;;;;;4.43;4.03;;;;;;;23.75;nan;99607.59;5062973;28;20199;-80
2023/06/05 07:44:24;;;;;;;4.95;3.55;;;;;;;23.95;nan;99611.81;5060744;28;20297;-79
2023/06/05 07:46:51;;;;;;;4.65;4.25;;;;;;;23.94;nan;99615.66;5063104;28;20263;-79
2023/06/05 07:49:18;;;;;;;4.63;4.10;;;;;;;24.13;nan;99608.91;5059272;28;20189;-79
2023/06/05 07:51:47;;;;;;;4.55;3.92;;;;;;;24.71;nan;99615.50;5060949;28;20206;-79
2023/06/05 07:54:18;;;;;;;4.63;4.18;;;;;;;24.91;nan;99617.75;5066537;28;20205;-80
2023/06/05 07:56:48;;;;;;;5.05;3.85;;;;;;;24.84;nan;99611.88;5065821;28;20186;-79
2023/06/05 07:59:16;;;;;;;4.05;3.75;;;;;;;25.27;nan;99614.84;5062190;28;20254;-79
2023/06/05 08:01:45;;;;;;;4.72;4.10;;;;;;;25.56;nan;99614.34;5046024;28;20695;-79
2023/06/05 08:04:12;;;;;;;4.35;3.95;;;;;;;25.50;nan;99612.81;5068015;28;20201;-78
2023/06/05 08:06:40;;;;;;;4.20;3.80;;;;;;;25.65;nan;99612.41;5065610;28;20202;-79
2023/06/05 08:09:09;;;;;;;3.85;3.55;;;;;;;25.65;nan;99613.22;5053923;28;20221;-81
2023/06/05 08:11:37;;;;;;;4.60;4.15;;;;;;;25.62;nan;99608.38;5056067;28;20204;-82
2023/06/05 08:14:06;;;;;;;5.22;3.78;;;;;;;25.75;nan;99603.88;5059953;28;20190;-80
2023/06/05 08:16:34;;;;;;;4.10;3.70;;;;;;;25.91;nan;99606.97;5046683;28;20658;-80
2023/06/05 08:19:01;;;;;;;4.35;3.95;;;;;;;26.18;nan;99606.66;5051913;28;20189;-80
2023/06/05 08:21:28;;;;;;;3.90;3.60;;;;;;;26.32;nan;99612.03;5059109;28;20246;-80
2023/06/05 08:23:55;;;;;;;5.20;3.65;;;;;;;26.46;nan;99610.72;5059850;28;20195;-80
2023/06/05 08:26:22;;;;;;;4.43;4.03;;;;;;;26.42;nan;99607.00;5053523;28;20194;-80
2023/06/05 08:28:49;;;;;;;4.40;4.00;;;;;;;25.99;nan;99595.97;5051182;28;20253;-81
2023/06/05 08:31:16;;;;;;;4.53;4.13;;;;;;;25.70;nan;99601.28;5056376;28;20252;-83
2023/06/05 08:33:43;;;;;;;4.65;3.78;;;;;;;25.92;nan;99594.84;5051323;28;20186;-81
2023/06/05 08:36:10;;;;;;;4.70;4.30;;;;;;;25.66;nan;99592.88;5062626;28;20181;-82
2023/06/05 08:38:37;;;;;;;3.72;3.42;;;;;;;26.09;nan;99595.66;5058621;28;20215;-80
2023/06/05 08:41:10;;;;;;;5.07;3.70;;;;;;;26.03;nan;99585.19;5061867;28;20195;-80
2023/06/05 08:43:41;;;;;;;4.18;3.78;;;;;;;26.09;nan;99584.69;5053865;28;20224;-81
2023/06/05 08:46:09;;;;;;;4.82;4.40;;;;;;;26.60;nan;99594.84;5054404;28;20213;-80
2023/06/05 08:48:40;;;;;;;4.13;3.72;;;;;;;26.86;nan;99602.28;5058411;28;20569;-81
2023/06/05 08:51:10;;;;;;;4.82;3.88;;;;;;;27.51;nan;99593.59;5057663;28;20211;-80
2023/06/05 08:53:39;;;;;;;3.88;3.58;;;;;;;27.63;nan;99590.94;5056060;28;20207;-81
2023/06/05 08:56:07;;;;;;;4.57;3.75;;;;;;;27.68;nan;99592.69;5059282;28;20238;-80
2023/06/05 08:58:37;;;;;;;6.55;4.00;;;;;;;27.58;nan;99588.38;5059391;28;20241;-81
2023/06/05 09:01:04;;;;;;;4.53;4.13;;;;;;;27.16;nan;99587.44;5058303;28;20664;-81
2023/06/05 09:03:33;;;;;;;4.43;3.50;;;;;;;26.84;nan;99580.56;5064854;28;20197;-81
2023/06/05 09:06:00;;;;;;;4.70;4.30;;;;;;;26.45;nan;99586.31;5058757;28;20190;-81
2023/06/05 09:08:32;;;;;;;4.25;3.75;;;;;;;26.79;nan;99597.22;5056162;28;20233;-81
2023/06/05 09:11:25;;;;;;;5.25;4.18;;;;;;;27.20;nan;99579.34;5060481;28;20205;-81
2023/06/05 09:13:53;;;;;;;4.65;4.25;;;;;;;27.30;nan;99588.00;5053134;28;20216;-81
2023/06/05 09:16:21;;;;;;;5.00;4.30;;;;;;;27.43;nan;99584.25;5058943;28;20239;-81
2023/06/05 09:18:53;;;;;;;4.63;4.05;;;;;;;27.34;nan;99583.44;5056903;28;20193;-81
2023/06/05 09:21:20;;;;;;;4.03;3.67;;;;;;;27.12;nan;99578.22;5056543;28;20275;-81
2023/06/05 09:23:47;;;;;;;4.53;3.83;;;;;;;27.26;nan;99581.56;5063309;28;20186;-81
2023/06/05 09:26:15;;;;;;;4.30;3.90;;;;;;;26.81;nan;99583.97;5063294;28;20276;-83
2023/06/05 09:28:54;;;;;;;4.63;3.72;;;;;;;27.23;nan;99575.91;5059627;28;20182;-81
2023/06/05 09:31:24;;;;;;;3.78;3.50;;;;;;;27.25;nan;99571.69;5063301;28;20211;-80
2023/06/05 09:33:55;;;;;;;4.60;3.67;;;;;;;27.08;nan;99572.59;5062021;28;20197;-81
2023/06/05 09:36:26;;;;;;;4.15;3.78;;;;;;;26.79;nan;99578.00;5063653;28;20193;-81
2023/06/05 09:38:52;;;;;;;4.82;3.90;;;;;;;26.81;nan;99578.47;5063915;28;20189;-81
2023/06/05 09:41:20;;;;;;;4.10;3.60;;;;;;;26.83;nan;99572.66;5062839;28;20192;-81
2023/06/05 09:43:49;;;;;;;3.70;3.40;;;;;;;26.90;nan;99575.72;5059254;28;20193;-81
2023/06/05 09:46:17;;;;;;;4.22;3.70;;;;;;;26.95;nan;99568.13;5058746;28;20614;-83
2023/06/05 09:48:53;;;;;;;5.18;4.10;;;;;;;26.94;nan;99576.69;5066813;28;20185;-81
2023/06/05 09:51:20;;;;;;;4.47;4.07;;;;;;;26.54;nan;99576.13;5064219;28;20204;-81
2023/06/05 09:53:49;;;;;;;4.30;3.90;;;;;;;26.33;nan;99569.69;5068465;28;20234;-81
2023/06/05 09:56:17;;;;;;;4.40;3.95;;;;;;;26.49;nan;99576.31;5055375;28;20181;-81
2023/06/05 09:58:49;;;;;;;4.40;3.92;;;;;;;26.87;nan;99579.97;5065725;28;20204;-82
2023/06/05 10:01:22;;;;;;;4.95;4.03;;;;;;;27.17;nan;99572.53;5063933;28;20189;-81
2023/06/05 10:03:57;;;;;;;6.57;4.70;;;;;;;27.55;nan;99573.34;5064558;28;20188;-81
2023/06/05 10:06:27;;;;;;;4.55;4.15;;;;;;;27.57;nan;99565.56;5068941;28;20185;-80
2023/06/05 10:08:56;;;;;;;4.20;3.75;;;;;;;27.89;nan;99569.56;5069037;28;20237;-80
2023/06/05 10:11:26;;;;;;;4.60;4.22;;;;;;;27.87;nan;99562.75;5054838;28;20223;-80
2023/06/05 10:13:53;;;;;;;5.60;4.35;;;;;;;27.70;nan;99566.47;5061463;28;20189;-80
2023/06/05 10:16:21;;;;;;;5.00;4.60;;;;;;;26.98;nan;99567.44;5065898;28;20203;-80
2023/06/05 10:18:54;;;;;;;5.20;4.80;;;;;;;27.01;nan;99561.31;5057900;28;20255;-81
2023/06/05 10:21:21;;;;;;;5.32;4.78;;;;;;;26.99;nan;99565.50;5062934;28;20194;-79
2023/06/05 10:23:55;;;;;;;5.40;4.60;;;;;;;26.96;nan;99561.50;5064068;28;20193;-80
2023/06/05 10:27:04;;;;;;;5.65;5.15;;;;;;;27.16;nan;99554.44;5054701;28;20192;-80
2023/06/05 10:30:08;;;;;;;5.70;5.07;;;;;;;27.26;nan;99559.56;5064760;28;20232;-81
2023/06/05 10:32:59;;;;;;;4.80;4.40;;;;;;;27.39;nan;99557.72;5063020;28;20777;-80
2023/06/05 10:35:45;;;;;;;5.32;4.57;;;;;;;28.09;nan;99564.38;5067387;28;20196;-82
2023/06/05 10:38:20;;;;;;;6.57;4.82;;;;;;;28.54;nan;99562.53;5053268;28;20186;-81
2023/06/05 10:41:00;;;;;;;5.47;4.72;;;;;;;28.35;nan;99549.25;5061230;28;20220;-82
2023/06/05 10:43:26;;;;;;;6.22;4.85;;;;;;;28.91;nan;99557.91;5064434;28;20193;-80
2023/06/05 10:45:54;;;;;;;5.80;5.30;;;;;;;29.17;nan;99552.88;5069562;28;20213;-80
2023/06/05 10:49:05;;;;;;;6.10;5.50;;;;;;;29.11;nan;99558.97;5070431;28;20189;-80
2023/06/05 10:51:53;;;;;;;5.72;5.10;;;;;;;29.38;nan;99551.97;5068384;28;20209;-80
2023/06/05 10:54:23;;;;;;;5.63;5.10;;;;;;;28.97;nan;99551.03;5064266;28;20188;-81
2023/06/05 10:57:03;;;;;;;4.85;4.45;;;;;;;29.03;nan;99554.34;5068741;28;20188;-80
2023/06/05 10:59:40;;;;;;;4.78;4.38;;;;;;;29.49;nan;99553.13;5054273;28;20186;-79
2023/06/05 11:02:12;;;;;;;5.15;4.65;;;;;;;29.41;nan;99551.28;5061402;28;20216;-80
2023/06/05 11:04:46;;;;;;;5.32;4.65;;;;;;;29.54;nan;99547.34;5058082;28;20201;-79
2023/06/05 11:07:18;;;;;;;4.97;4.57;;;;;;;29.36;nan;99543.22;5057067;28;20322;-81
2023/06/05 11:10:10;;;;;;;5.22;4.28;;;;;;;29.43;nan;99543.47;5050788;28;20316;-80
2023/06/05 11:12:43;;;;;;;5.13;4.68;;;;;;;29.58;nan;99545.53;5066012;28;20229;-79
2023/06/05 11:15:14;;;;;;;5.30;4.80;;;;;;;28.57;nan;99534.28;5070056;28;20216;-79
2023/06/05 11:17:43;;;;;;;5.60;5.15;;;;;;;29.09;nan;99548.28;5068341;28;20185;-80
2023/06/05 11:20:28;;;;;;;5.30;4.80;;;;;;;29.64;nan;99544.94;5069303;28;20201;-79
2023/06/05 11:22:55;;;;;;;5.30;4.80;;;;;;;29.89;nan;99537.44;5057298;28;20186;-79
2023/06/05 11:25:24;;;;;;;5.93;4.55;;;;;;;30.28;nan;99537.75;5062381;28;20665;-79
2023/06/05 11:28:01;;;;;;;5.47;4.85;;;;;;;30.51;nan;99536.03;5062698;28;20314;-81
2023/06/05 11:30:45;;;;;;;6.18;4.70;;;;;;;30.06;nan;99533.56;5063956;28;20193;-79
2023/06/05 11:33:17;;;;;;;5.25;4.75;;;;;;;29.84;nan;99539.59;5060333;28;20270;-80
2023/06/05 11:35:46;;;;;;;4.57;4.18;;;;;;;29.75;nan;99540.53;5066014;28;20189;-80
2023/06/05 11:38:24;;;;;;;5.88;4.30;;;;;;;29.76;nan;99535.81;5056842;28;20193;-79
2023/06/05 11:40:51;;;;;;;4.88;4.47;;;;;;;29.13;nan;99540.09;5065939;28;20185;-80
2023/06/05 11:43:18;;;;;;;4.90;4.50;;;;;;;28.76;nan;99536.53;5061846;28;20680;-79
2023/06/05 11:45:49;;;;;;;4.63;4.22;;;;;;;29.17;nan;99533.56;5064584;28;20217;-80
2023/06/05 11:48:17;;;;;;;4.65;4.25;;;;;;;29.19;nan;99544.25;5061241;28;20705;-80
2023/06/05 11:50:55;;;;;;;6.15;4.57;;;;;;;29.02;nan;99538.97;5064908;28;20181;-81
2023/06/05 11:53:23;;;;;;;5.10;4.45;;;;;;;28.93;nan;99532.75;5066048;28;20287;-79
2023/06/05 11:58:25;;;;;;;5.75;4.47;;;;;;;28.30;nan;99534.88;5069902;28;20559;-79
2023/06/05 12:01:04;;;;;;;4.38;3.97;;;;;;;28.62;nan;99536.00;5063673;28;20189;-80